Hiroshima Airport, Japan

10:13 AM JST on August 30, 2016 (GMT +0900)
Hiroshima | | Change Station

Elev 1096 ft 34.44 °N, 132.92 °E | Updated 13 minutes ago

Mostly Cloudy
Mostly Cloudy
72 °F
Feels Like 72 °F
N
12
Wind Variable Wind from West

Today
High -- | Low -- °F
--% Chance of Precip.
Yesterday
High -- | Low -- °F
Precip. -- in
Pressure 29.39 in
Visibility 6.2 miles
Clouds Few 2000 ft
Mostly Cloudy 3500 ft
Dew Point 55 °F
Humidity 57%
Rainfall 0.00 in
Snow Depth Not available.
5:40 AM 6:37 PM
Waning Crescent, 6% visible
METAR RJOA 300100Z 26010KT 200V300 9999 FEW020 BKN035 22/13 Q0995
Pressure 29.39 in
Visibility 6.2 miles
Clouds Few 2000 ft
Mostly Cloudy 3500 ft
Dew Point 55 °F
Humidity 57%
Rainfall 0.00 in
Snow Depth Not available.
5:40 AM 6:37 PM
Waning Crescent, 6% visible
METAR RJOA 300100Z 26010KT 200V300 9999 FEW020 BKN035 22/13 Q0995

10-Day Weather Forecast

No radar image for this location.
×

Almanac

Astronomy

Aug. 30, 2016 Rise Set
Actual Time
Civil Twilight
Nautical Twilight
Astronomical Twilight
Moon
Length of Visible Light
Length of Day
Tomorrow will be .
, % of the Moon is Illuminated

Today's Extremes

Country Highs Country Lows

Community

WunderPhotos

Upload Photos

1,935,709 photos uploaded!

WunderBlog® & News

Nearby

Air Quality

  Air Quality AQ Index Pollutant
Not available.

Snow Depth

Station Depth Elevation

Earthquake Activity

City Distance Mag. Time & Date
Minimum magnitude displayed is 2.5.

Coastal Water Temperatures

Place Temperature

Stations

Nearby Weather Stations

Station Location Temp. Windchill Dew Point Humidity Wind Precip. Elev Updated Type